createdAt,value
2019-05-10T00:00:44.737Z,92.60
2019-05-10T00:03:32.289Z,92.60
2019-05-10T00:06:20.050Z,92.50
2019-05-10T00:08:49.216Z,92.40
2019-05-10T00:11:28.549Z,92.30
2019-05-10T00:14:05.361Z,92.60
2019-05-10T00:16:36.053Z,92.80
2019-05-10T00:19:05.630Z,92.60
2019-05-10T00:21:35.276Z,92.70
2019-05-10T00:24:05.021Z,92.70
2019-05-10T00:26:34.691Z,92.90
2019-05-10T00:29:04.409Z,93.10
2019-05-10T00:31:33.981Z,93.30
2019-05-10T00:34:03.721Z,93.30
2019-05-10T00:36:33.227Z,93.30
2019-05-10T00:39:02.785Z,93.50
2019-05-10T00:41:32.425Z,93.60
2019-05-10T00:44:01.986Z,93.90
2019-05-10T00:46:31.495Z,93.70
2019-05-10T00:49:01.139Z,94.10
2019-05-10T00:51:30.811Z,94.00
2019-05-10T00:54:00.269Z,94.00
2019-05-10T00:56:29.841Z,94.00
2019-05-10T00:58:59.408Z,93.70
2019-05-10T01:01:28.909Z,93.70
2019-05-10T01:03:58.508Z,93.70
2019-05-10T01:06:28.018Z,93.90
2019-05-10T01:08:57.661Z,94.20
2019-05-10T01:11:27.367Z,93.70
2019-05-10T01:13:57.044Z,93.80
2019-05-10T01:16:26.749Z,94.10
2019-05-10T01:18:56.394Z,94.00
2019-05-10T01:21:25.908Z,94.20
2019-05-10T01:23:55.460Z,94.20
2019-05-10T01:26:25.188Z,94.00
2019-05-10T01:28:54.748Z,94.70
2019-05-10T01:31:24.388Z,94.70
2019-05-10T01:33:53.955Z,94.50
2019-05-10T01:36:24.499Z,94.30
2019-05-10T01:38:54.053Z,94.60
2019-05-10T01:41:23.693Z,94.50
2019-05-10T01:43:53.256Z,94.30
2019-05-10T01:46:22.933Z,94.40
2019-05-10T01:48:52.611Z,94.50
2019-05-10T01:51:22.203Z,94.70
2019-05-10T01:53:51.656Z,94.80
2019-05-10T01:56:21.301Z,94.70
2019-05-10T01:58:50.940Z,95.00
2019-05-10T02:01:20.577Z,95.10
2019-05-10T02:03:50.212Z,95.10
2019-05-10T02:06:19.714Z,95.10
2019-05-10T02:08:49.349Z,95.10
2019-05-10T02:11:18.983Z,94.90
2019-05-10T02:13:48.619Z,94.60
2019-05-10T02:16:18.269Z,93.80
2019-05-10T02:18:47.897Z,94.00
2019-05-10T02:21:17.540Z,93.60
2019-05-10T02:23:48.322Z,94.00
2019-05-10T02:26:17.812Z,93.50
2019-05-10T02:28:47.303Z,93.40
2019-05-10T02:31:21.304Z,93.50
2019-05-10T02:33:48.238Z,93.30
2019-05-10T02:36:17.806Z,93.30
2019-05-10T02:38:47.431Z,93.10
2019-05-10T02:41:17.105Z,92.80
2019-05-10T02:43:46.749Z,92.70
2019-05-10T02:46:16.326Z,92.40
2019-05-10T02:48:46.037Z,92.60
2019-05-10T02:51:15.671Z,92.60
2019-05-10T02:53:45.386Z,93.20
2019-05-10T02:56:29.773Z,93.20
2019-05-10T02:58:47.938Z,93.20
2019-05-10T03:01:20.582Z,93.70
2019-05-10T03:03:53.108Z,93.60
2019-05-10T03:06:24.916Z,94.00
2019-05-10T03:08:54.761Z,93.90
2019-05-10T03:11:27.345Z,93.70
2019-05-10T03:13:59.913Z,93.30
2019-05-10T03:16:32.563Z,93.20
2019-05-10T03:19:03.565Z,93.10
2019-05-10T03:21:37.217Z,92.60
2019-05-10T03:24:06.786Z,92.50
2019-05-10T03:26:50.419Z,92.50
2019-05-10T03:29:09.810Z,92.20
2019-05-10T03:31:39.414Z,91.60
2019-05-10T03:34:09.338Z,91.50
2019-05-10T03:36:40.330Z,91.80
2019-05-10T03:39:09.939Z,92.00
2019-05-10T03:41:39.430Z,91.90
2019-05-10T03:44:09.001Z,91.70
2019-05-10T03:46:38.559Z,91.50
2019-05-10T03:49:08.202Z,91.30
2019-05-10T03:51:37.699Z,91.40
2019-05-10T03:54:07.838Z,91.30
2019-05-10T03:56:37.477Z,91.10
2019-05-10T03:59:07.141Z,91.10
2019-05-10T04:01:36.719Z,90.90
2019-05-10T04:04:09.516Z,90.70
2019-05-10T04:06:37.666Z,90.60
2019-05-10T04:09:07.398Z,90.40
2019-05-10T04:11:36.957Z,90.20
2019-05-10T04:14:06.598Z,90.10
2019-05-10T04:16:36.239Z,90.00
2019-05-10T04:19:05.737Z,89.90
2019-05-10T04:21:35.251Z,89.70
2019-05-10T04:24:04.914Z,89.50
2019-05-10T04:26:34.410Z,89.20
2019-05-10T04:29:03.979Z,89.10
2019-05-10T04:31:33.681Z,89.00
2019-05-10T04:34:03.291Z,89.10
2019-05-10T04:36:32.793Z,88.70
2019-05-10T04:39:02.406Z,88.60
2019-05-10T04:41:33.097Z,88.60
2019-05-10T04:44:02.590Z,88.30
2019-05-10T04:46:32.126Z,88.00
2019-05-10T04:49:01.721Z,87.90
2019-05-10T04:51:31.297Z,88.00
2019-05-10T04:54:00.946Z,89.20
2019-05-10T04:56:30.521Z,88.00
2019-05-10T04:59:00.151Z,87.30
2019-05-10T05:01:29.715Z,87.20
2019-05-10T05:03:59.302Z,86.60
2019-05-10T05:06:28.864Z,86.60
2019-05-10T05:08:58.356Z,86.60
2019-05-10T05:11:27.918Z,85.40
2019-05-10T05:13:57.414Z,85.50
2019-05-10T05:16:27.041Z,85.10
2019-05-10T05:18:56.548Z,85.10
2019-05-10T05:21:26.109Z,85.10
2019-05-10T05:23:55.622Z,84.70
2019-05-10T05:26:25.321Z,84.20
2019-05-10T05:28:54.837Z,84.40
2019-05-10T05:31:24.654Z,83.70
2019-05-10T05:33:59.332Z,84.50
2019-05-10T05:36:25.971Z,83.30
2019-05-10T05:38:55.497Z,82.90
2019-05-10T05:41:25.202Z,82.00
2019-05-10T05:43:54.925Z,81.60
2019-05-10T05:46:24.589Z,81.60
2019-05-10T05:48:54.237Z,80.60
2019-05-10T05:51:24.000Z,79.70
2019-05-10T05:53:53.655Z,79.00
2019-05-10T05:56:23.217Z,78.10
2019-05-10T05:58:52.839Z,77.80
2019-05-10T06:01:28.886Z,76.30
2019-05-10T06:04:00.025Z,75.80
2019-05-10T06:06:27.241Z,77.20
2019-05-10T06:08:59.744Z,77.40
2019-05-10T06:11:29.659Z,77.90
2019-05-10T06:14:03.867Z,77.10
2019-05-10T06:16:30.441Z,75.20
2019-05-10T06:19:00.101Z,74.10
2019-05-10T06:21:29.676Z,72.30
2019-05-10T06:23:59.662Z,70.90
2019-05-10T06:26:29.435Z,67.50
2019-05-10T06:29:03.821Z,66.80
2019-05-10T06:31:30.270Z,66.60
2019-05-10T06:33:59.909Z,64.90
2019-05-10T06:36:29.556Z,62.60
2019-05-10T06:38:59.117Z,59.00
2019-05-10T06:41:32.275Z,55.20
2019-05-10T06:43:59.877Z,54.70
2019-05-10T06:46:31.210Z,53.10
2019-05-10T06:49:07.410Z,48.90
2019-05-10T06:51:31.970Z,44.40
2019-05-10T06:54:01.467Z,40.70
2019-05-10T06:56:32.107Z,38.80
2019-05-10T06:59:12.974Z,33.90
2019-05-10T07:01:38.489Z,31.40
2019-05-10T07:04:04.101Z,32.60
2019-05-10T07:06:33.702Z,32.30
2019-05-10T07:09:04.945Z,31.00
2019-05-10T07:11:34.509Z,29.00
2019-05-10T07:14:04.091Z,28.00
2019-05-10T07:16:34.713Z,26.50
2019-05-10T07:19:04.349Z,25.30
2019-05-10T07:21:33.916Z,25.90
2019-05-10T07:24:03.470Z,25.20
2019-05-10T07:26:33.174Z,25.80
2019-05-10T07:29:02.613Z,25.20
2019-05-10T07:31:33.833Z,24.80
2019-05-10T07:34:03.466Z,24.20
2019-05-10T07:36:32.964Z,24.70
2019-05-10T07:39:08.143Z,25.10
2019-05-10T07:41:34.065Z,24.00
2019-05-10T07:44:08.192Z,23.70
2019-05-10T07:46:40.022Z,28.20
2019-05-10T07:49:06.179Z,32.60
2019-05-10T07:51:35.868Z,35.80
2019-05-10T07:54:06.403Z,40.00
2019-05-10T07:56:38.892Z,39.60
2019-05-10T07:59:07.488Z,35.90
2019-05-10T08:01:37.011Z,29.10
2019-05-10T08:04:08.826Z,27.20
2019-05-10T08:06:44.403Z,26.90
2019-05-10T08:09:09.869Z,33.60
2019-05-10T08:11:39.610Z,40.70
2019-05-10T08:14:11.224Z,46.20
2019-05-10T08:16:40.435Z,48.50
2019-05-10T08:19:10.152Z,48.60
2019-05-10T08:21:41.835Z,51.00
2019-05-10T08:24:16.110Z,46.90
2019-05-10T08:26:42.604Z,44.10
2019-05-10T08:29:15.126Z,37.00
2019-05-10T08:31:50.524Z,34.60
2019-05-10T08:34:14.707Z,36.20
2019-05-10T08:36:47.697Z,40.30
2019-05-10T08:39:15.927Z,42.70
2019-05-10T08:41:46.253Z,44.10
2019-05-10T08:44:20.989Z,43.00
2019-05-10T08:46:47.884Z,43.30
2019-05-10T08:49:21.923Z,44.30
2019-05-10T08:51:49.512Z,42.80
2019-05-10T08:54:21.926Z,43.10
2019-05-10T08:56:52.964Z,44.30
2019-05-10T08:59:26.457Z,43.20
2019-05-10T09:01:53.925Z,45.00
2019-05-10T09:04:23.423Z,43.80
2019-05-10T09:06:59.536Z,44.50
2019-05-10T09:09:24.511Z,46.80
2019-05-10T09:11:57.805Z,45.70
2019-05-10T09:14:25.428Z,43.30
2019-05-10T09:17:00.764Z,45.90
2019-05-10T09:19:36.007Z,49.00
2019-05-10T09:21:57.380Z,49.30
2019-05-10T09:24:27.025Z,51.10
2019-05-10T09:26:57.086Z,50.40
2019-05-10T09:29:35.120Z,52.20
2019-05-10T09:32:01.148Z,53.10
2019-05-10T09:34:32.447Z,53.30
2019-05-10T09:37:02.941Z,53.40
2019-05-10T09:39:33.068Z,52.00
2019-05-10T09:42:07.634Z,50.40
2019-05-10T09:44:33.905Z,50.20
2019-05-10T09:47:04.026Z,49.40
2019-05-10T09:49:33.740Z,50.30
2019-05-10T09:52:04.613Z,51.70
2019-05-10T09:54:34.711Z,51.80
2019-05-10T09:57:04.340Z,54.50
2019-05-10T09:59:34.049Z,52.30
2019-05-10T10:02:05.055Z,49.60
2019-05-10T10:04:37.153Z,49.30
2019-05-10T10:07:06.369Z,47.20
2019-05-10T10:09:42.494Z,46.30
2019-05-10T10:12:07.553Z,45.50
2019-05-10T10:14:39.349Z,45.30
2019-05-10T10:17:08.526Z,45.50
2019-05-10T10:19:40.609Z,47.60
2019-05-10T10:22:10.951Z,48.90
2019-05-10T10:24:41.243Z,48.70
2019-05-10T10:27:10.828Z,47.60
2019-05-10T10:29:40.387Z,48.60
2019-05-10T10:32:11.098Z,49.00
2019-05-10T10:34:42.946Z,45.10
2019-05-10T10:37:14.812Z,47.60
2019-05-10T10:39:43.170Z,47.80
2019-05-10T10:42:13.429Z,48.10
2019-05-10T10:44:43.145Z,47.10
2019-05-10T10:47:12.716Z,48.70
2019-05-10T10:49:42.444Z,48.00
2019-05-10T10:52:13.544Z,47.10
2019-05-10T10:54:43.430Z,47.00
2019-05-10T10:57:12.998Z,47.60
2019-05-10T10:59:42.552Z,47.00
2019-05-10T11:02:33.217Z,46.90
2019-05-10T11:04:47.231Z,44.90
2019-05-10T11:07:14.694Z,44.30
2019-05-10T11:09:45.333Z,45.60
2019-05-10T11:12:21.060Z,44.90
2019-05-10T11:14:46.147Z,43.50
2019-05-10T11:17:15.843Z,44.90
2019-05-10T11:19:45.339Z,45.30
2019-05-10T11:22:14.830Z,45.40
2019-05-10T11:24:44.423Z,45.60
2019-05-10T11:27:17.190Z,47.30
2019-05-10T11:29:45.274Z,44.90
2019-05-10T11:32:16.855Z,43.00
2019-05-10T11:34:46.026Z,42.50
2019-05-10T11:37:18.281Z,44.70
2019-05-10T11:39:47.161Z,47.70
2019-05-10T11:42:16.829Z,48.00
2019-05-10T11:44:50.092Z,47.80
2019-05-10T11:47:24.177Z,49.20
2019-05-10T11:49:50.836Z,46.90
2019-05-10T11:52:21.727Z,46.80
2019-05-10T11:54:51.477Z,47.90
2019-05-10T11:57:21.911Z,46.40
2019-05-10T11:59:51.955Z,48.20
2019-05-10T12:02:35.349Z,48.20
2019-05-10T12:04:52.977Z,47.10
2019-05-10T12:07:24.640Z,48.00
2019-05-10T12:10:03.315Z,47.80
2019-05-10T12:12:44.831Z,50.30
2019-05-10T12:14:57.807Z,50.00
2019-05-10T12:17:28.512Z,50.40
2019-05-10T12:19:58.078Z,49.50
2019-05-10T12:22:38.334Z,45.50
2019-05-10T12:25:19.798Z,45.30
2019-05-10T12:27:43.987Z,46.30
2019-05-10T12:30:03.447Z,44.90
2019-05-10T12:32:38.808Z,43.40
2019-05-10T12:35:06.621Z,45.70
2019-05-10T12:37:39.543Z,47.90
2019-05-10T12:40:14.060Z,50.40
2019-05-10T12:42:41.588Z,49.60
2019-05-10T12:45:10.925Z,48.90
2019-05-10T12:47:42.097Z,45.90
2019-05-10T12:50:12.034Z,44.70
2019-05-10T12:52:43.317Z,43.40
2019-05-10T12:55:12.843Z,43.00
2019-05-10T12:57:43.416Z,43.70
2019-05-10T13:00:15.836Z,46.50
2019-05-10T13:02:51.473Z,46.10
2019-05-10T13:05:16.318Z,46.10
2019-05-10T13:07:45.874Z,44.40
2019-05-10T13:10:15.935Z,47.70
2019-05-10T13:12:47.442Z,48.10
2019-05-10T13:15:17.641Z,48.80
2019-05-10T13:17:50.308Z,48.40
2019-05-10T13:20:19.152Z,45.90
2019-05-10T13:22:48.793Z,45.60
2019-05-10T13:25:18.402Z,46.40
2019-05-10T13:27:48.043Z,44.00
2019-05-10T13:30:27.145Z,43.30
2019-05-10T13:32:52.882Z,44.10
2019-05-10T13:35:23.004Z,43.10
2019-05-10T13:37:56.882Z,43.70
2019-05-10T13:40:23.673Z,43.10
2019-05-10T13:42:53.203Z,44.80
2019-05-10T13:45:22.779Z,45.90
2019-05-10T13:47:53.596Z,46.30
2019-05-10T13:50:23.155Z,46.50
2019-05-10T13:52:52.778Z,46.80
2019-05-10T13:55:22.470Z,47.10
2019-05-10T13:57:54.175Z,48.00
2019-05-10T14:00:33.473Z,48.20
2019-05-10T14:02:54.536Z,47.80
2019-05-10T14:05:24.186Z,49.00
2019-05-10T14:07:53.784Z,48.70
2019-05-10T14:10:25.170Z,48.10
2019-05-10T14:12:56.240Z,48.50
2019-05-10T14:15:25.961Z,46.60
2019-05-10T14:17:55.516Z,44.70
2019-05-10T14:20:27.529Z,46.00
2019-05-10T14:22:58.826Z,44.00
2019-05-10T14:25:29.523Z,43.80
2019-05-10T14:27:58.809Z,41.70
2019-05-10T14:30:28.363Z,42.70
2019-05-10T14:32:57.857Z,39.60
2019-05-10T14:35:27.412Z,42.90
2019-05-10T14:38:06.941Z,43.70
2019-05-10T14:40:30.498Z,44.60
2019-05-10T14:42:59.365Z,44.80
2019-05-10T14:45:28.851Z,45.20
2019-05-10T14:47:58.461Z,45.50
2019-05-10T14:50:28.496Z,48.10
2019-05-10T14:52:58.370Z,46.60
2019-05-10T14:55:34.305Z,46.50
2019-05-10T14:57:59.158Z,46.20
2019-05-10T15:00:29.008Z,48.70
2019-05-10T15:03:02.061Z,49.70
2019-05-10T15:05:29.818Z,49.40
2019-05-10T15:07:59.300Z,48.60
2019-05-10T15:10:33.068Z,50.50
2019-05-10T15:13:00.100Z,50.90
2019-05-10T15:15:31.061Z,50.20
2019-05-10T15:18:03.605Z,50.00
2019-05-10T15:20:35.520Z,52.30
2019-05-10T15:23:03.601Z,52.80
2019-05-10T15:25:33.092Z,53.30
2019-05-10T15:28:02.716Z,52.60
2019-05-10T15:30:32.281Z,52.10
2019-05-10T15:33:01.973Z,51.50
2019-05-10T15:35:31.492Z,51.60
2019-05-10T15:38:01.116Z,51.10
2019-05-10T15:40:30.604Z,51.20
2019-05-10T15:43:02.988Z,51.70
2019-05-10T15:45:31.497Z,50.30
2019-05-10T15:48:02.914Z,52.80
2019-05-10T15:50:37.925Z,52.40
2019-05-10T15:53:03.759Z,52.70
2019-05-10T15:55:36.621Z,51.50
2019-05-10T15:58:06.399Z,52.80
2019-05-10T16:00:39.719Z,52.10
2019-05-10T16:03:07.365Z,54.40
2019-05-10T16:05:43.499Z,53.70
2019-05-10T16:08:08.109Z,54.80
2019-05-10T16:10:39.453Z,54.50
2019-05-10T16:13:09.281Z,53.00
2019-05-10T16:15:38.828Z,53.00
2019-05-10T16:18:08.452Z,53.00
2019-05-10T16:20:39.025Z,52.70
2019-05-10T16:23:11.183Z,52.50
2019-05-10T16:25:47.538Z,53.60
2019-05-10T16:28:15.603Z,52.50
2019-05-10T16:30:42.823Z,53.00
2019-05-10T16:33:15.713Z,52.60
2019-05-10T16:35:44.201Z,53.70
2019-05-10T16:38:15.669Z,53.80
2019-05-10T16:40:56.844Z,54.20
2019-05-10T16:43:23.947Z,54.60
2019-05-10T16:45:49.556Z,55.00
2019-05-10T16:48:19.058Z,55.90
2019-05-10T16:50:48.612Z,54.90
2019-05-10T16:53:18.253Z,55.00
2019-05-10T16:55:47.825Z,55.90
2019-05-10T16:58:18.006Z,55.90
2019-05-10T17:00:48.170Z,54.90
2019-05-10T17:03:18.736Z,55.80
2019-05-10T17:05:53.609Z,56.20
2019-05-10T17:08:20.369Z,56.70
2019-05-10T17:10:50.055Z,56.10
2019-05-10T17:13:19.584Z,56.70
2019-05-10T17:15:49.674Z,55.70
2019-05-10T17:18:20.012Z,55.10
2019-05-10T17:20:52.374Z,55.10
2019-05-10T17:23:22.150Z,55.50
2019-05-10T17:25:51.782Z,55.30
2019-05-10T17:28:21.503Z,56.20
2019-05-10T17:30:51.181Z,56.00
2019-05-10T17:33:20.816Z,55.80
2019-05-10T17:35:50.634Z,56.40
2019-05-10T17:38:20.450Z,56.60
2019-05-10T17:40:50.166Z,56.80
2019-05-10T17:43:22.695Z,57.10
2019-05-10T17:45:50.909Z,57.60
2019-05-10T17:48:20.586Z,58.90
2019-05-10T17:50:50.203Z,57.60
2019-05-10T17:53:19.828Z,58.20
2019-05-10T17:55:56.070Z,58.30
2019-05-10T17:58:21.666Z,59.10
2019-05-10T18:00:51.221Z,59.00
2019-05-10T18:03:20.716Z,59.30
2019-05-10T18:05:53.358Z,60.80
2019-05-10T18:08:22.828Z,60.70
2019-05-10T18:10:57.124Z,61.10
2019-05-10T18:13:23.756Z,61.20
2019-05-10T18:15:54.370Z,61.40
2019-05-10T18:18:23.988Z,62.60
2019-05-10T18:20:53.581Z,65.50
2019-05-10T18:23:23.131Z,66.90
2019-05-10T18:25:58.508Z,69.60
2019-05-10T18:28:24.010Z,70.60
2019-05-10T18:30:53.646Z,72.20
2019-05-10T18:33:23.252Z,73.30
2019-05-10T18:35:54.632Z,74.20
2019-05-10T18:38:24.047Z,73.70
2019-05-10T18:40:53.640Z,75.20
2019-05-10T18:43:23.127Z,75.70
2019-05-10T18:45:52.693Z,76.80
2019-05-10T18:48:22.331Z,77.10
2019-05-10T18:50:51.897Z,77.50
2019-05-10T18:53:21.381Z,78.10
2019-05-10T18:55:51.057Z,78.40
2019-05-10T18:58:23.386Z,78.50
2019-05-10T19:00:56.003Z,79.00
2019-05-10T19:03:27.856Z,79.20
2019-05-10T19:05:55.823Z,79.10
2019-05-10T19:08:26.619Z,79.40
2019-05-10T19:10:56.206Z,79.60
2019-05-10T19:13:27.430Z,79.70
2019-05-10T19:15:58.571Z,79.80
2019-05-10T19:18:28.419Z,79.80
2019-05-10T19:20:58.762Z,80.10
2019-05-10T19:23:28.349Z,80.20
2019-05-10T19:25:58.004Z,80.10
2019-05-10T19:28:28.518Z,80.20
2019-05-10T19:30:59.161Z,80.30
2019-05-10T19:33:35.630Z,80.50
2019-05-10T19:36:00.568Z,80.60
2019-05-10T19:38:30.141Z,80.80
2019-05-10T19:40:59.713Z,80.90
2019-05-10T19:43:29.382Z,80.80
2019-05-10T19:45:59.762Z,81.10
2019-05-10T19:48:35.735Z,81.20
2019-05-10T19:51:08.632Z,81.50
2019-05-10T19:53:36.476Z,81.40
2019-05-10T19:56:04.150Z,81.50
2019-05-10T19:58:34.046Z,84.50
2019-05-10T20:01:03.707Z,84.90
2019-05-10T20:03:33.444Z,84.70
2019-05-10T20:06:02.937Z,84.80
2019-05-10T20:08:32.762Z,84.70
2019-05-10T20:11:02.429Z,84.50
2019-05-10T20:13:32.124Z,84.10
2019-05-10T20:16:01.879Z,83.60
2019-05-10T20:18:31.469Z,83.30
2019-05-10T20:21:01.074Z,83.80
2019-05-10T20:23:31.769Z,84.00
2019-05-10T20:26:03.170Z,83.90
2019-05-10T20:28:32.756Z,84.00
2019-05-10T20:31:03.313Z,83.30
2019-05-10T20:33:33.009Z,84.50
2019-05-10T20:36:04.248Z,83.70
2019-05-10T20:38:33.790Z,83.40
2019-05-10T20:41:03.493Z,83.80
2019-05-10T20:43:33.053Z,83.80
2019-05-10T20:46:06.763Z,83.80
2019-05-10T20:48:36.206Z,84.00
2019-05-10T20:51:06.011Z,84.40
2019-05-10T20:53:35.626Z,84.40
2019-05-10T20:56:05.155Z,84.60
2019-05-10T20:58:34.777Z,85.30
2019-05-10T21:01:04.562Z,85.30
2019-05-10T21:03:34.392Z,85.80
2019-05-10T21:06:04.054Z,85.70
2019-05-10T21:08:33.636Z,85.70
2019-05-10T21:11:03.334Z,85.80
2019-05-10T21:13:32.910Z,85.70
2019-05-10T21:16:02.522Z,85.70
2019-05-10T21:18:32.258Z,85.90
2019-05-10T21:21:02.052Z,86.20
2019-05-10T21:23:31.628Z,86.50
2019-05-10T21:26:01.109Z,87.00
2019-05-10T21:28:30.981Z,87.80
2019-05-10T21:31:01.503Z,87.80
2019-05-10T21:33:31.136Z,87.90
2019-05-10T21:36:00.781Z,87.60
2019-05-10T21:38:32.944Z,87.40
2019-05-10T21:41:03.480Z,87.60
2019-05-10T21:43:33.949Z,87.50
2019-05-10T21:46:03.671Z,88.00
2019-05-10T21:48:33.179Z,88.00
2019-05-10T21:51:02.729Z,88.20
2019-05-10T21:53:32.381Z,88.30
2019-05-10T21:56:02.044Z,88.30
2019-05-10T21:58:31.762Z,88.70
2019-05-10T22:01:01.496Z,88.50
2019-05-10T22:03:32.229Z,89.50
2019-05-10T22:06:01.933Z,90.00
2019-05-10T22:08:31.636Z,90.20
2019-05-10T22:11:01.193Z,90.10
2019-05-10T22:13:30.848Z,90.30
2019-05-10T22:16:00.316Z,90.40
2019-05-10T22:18:30.726Z,90.70
2019-05-10T22:21:00.425Z,91.00
2019-05-10T22:23:29.997Z,90.80
2019-05-10T22:25:59.496Z,91.00
2019-05-10T22:28:29.124Z,90.90
2019-05-10T22:30:58.813Z,91.00
2019-05-10T22:33:28.509Z,90.50
2019-05-10T22:35:58.085Z,90.80
2019-05-10T22:38:27.589Z,90.90
2019-05-10T22:40:57.230Z,90.90
2019-05-10T22:43:26.870Z,91.10
2019-05-10T22:45:56.502Z,91.20
2019-05-10T22:48:26.145Z,91.30
2019-05-10T22:50:55.785Z,91.20
2019-05-10T22:53:25.362Z,91.40
2019-05-10T22:55:54.937Z,91.20
2019-05-10T22:58:24.496Z,91.00
2019-05-10T23:00:54.209Z,91.10
2019-05-10T23:03:24.750Z,91.20
2019-05-10T23:05:54.661Z,91.40
2019-05-10T23:08:24.220Z,91.60
2019-05-10T23:10:53.970Z,91.80
2019-05-10T23:13:23.685Z,91.90
2019-05-10T23:15:53.185Z,91.90
2019-05-10T23:18:22.898Z,91.90
2019-05-10T23:20:52.476Z,92.00
2019-05-10T23:23:23.183Z,92.00
2019-05-10T23:25:52.703Z,91.90
2019-05-10T23:28:22.336Z,91.90
2019-05-10T23:30:51.925Z,92.00
2019-05-10T23:33:21.496Z,91.90
2019-05-10T23:35:51.074Z,91.80
2019-05-10T23:38:20.649Z,91.70
2019-05-10T23:40:50.213Z,91.80
2019-05-10T23:43:19.728Z,91.60
2019-05-10T23:45:49.357Z,91.90
2019-05-10T23:48:18.933Z,91.80
2019-05-10T23:50:48.504Z,91.70
2019-05-10T23:53:18.214Z,91.70
2019-05-10T23:55:47.845Z,91.80
2019-05-10T23:58:17.485Z,91.70
